sensor_id;sensor_type;location;lat;lon;timestamp;temperature;humidity
52036;DHT22;38046;49.448;32.074;2023-03-04T00:02:21;5.40;67.80
52036;DHT22;38046;49.448;32.074;2023-03-04T00:04:47;5.30;67.90
52036;DHT22;38046;49.448;32.074;2023-03-04T00:07:12;5.20;68.20
52036;DHT22;38046;49.448;32.074;2023-03-04T00:09:42;5.20;68.50
52036;DHT22;38046;49.448;32.074;2023-03-04T00:12:08;5.10;68.50
52036;DHT22;38046;49.448;32.074;2023-03-04T00:14:33;5.10;68.90
52036;DHT22;38046;49.448;32.074;2023-03-04T00:16:59;5.10;68.80
52036;DHT22;38046;49.448;32.074;2023-03-04T00:19:24;5.10;69.00
52036;DHT22;38046;49.448;32.074;2023-03-04T00:21:50;5.00;69.20
52036;DHT22;38046;49.448;32.074;2023-03-04T00:24:16;5.00;69.20
52036;DHT22;38046;49.448;32.074;2023-03-04T00:26:41;5.00;69.40
52036;DHT22;38046;49.448;32.074;2023-03-04T00:29:07;5.00;69.40
52036;DHT22;38046;49.448;32.074;2023-03-04T00:31:33;5.00;69.50
52036;DHT22;38046;49.448;32.074;2023-03-04T00:33:58;5.00;69.50
52036;DHT22;38046;49.448;32.074;2023-03-04T00:36:24;4.90;69.40
52036;DHT22;38046;49.448;32.074;2023-03-04T00:38:50;4.90;69.60
52036;DHT22;38046;49.448;32.074;2023-03-04T00:41:16;4.90;69.70
52036;DHT22;38046;49.448;32.074;2023-03-04T00:43:41;4.90;69.80
52036;DHT22;38046;49.448;32.074;2023-03-04T00:46:07;4.90;69.90
52036;DHT22;38046;49.448;32.074;2023-03-04T00:48:33;5.00;69.70
52036;DHT22;38046;49.448;32.074;2023-03-04T00:50:58;5.00;69.60
52036;DHT22;38046;49.448;32.074;2023-03-04T00:53:24;5.10;69.50
52036;DHT22;38046;49.448;32.074;2023-03-04T00:55:50;5.10;69.50
52036;DHT22;38046;49.448;32.074;2023-03-04T00:58:16;5.10;69.40
52036;DHT22;38046;49.448;32.074;2023-03-04T01:00:42;5.10;69.50
52036;DHT22;38046;49.448;32.074;2023-03-04T01:03:07;5.20;69.30
52036;DHT22;38046;49.448;32.074;2023-03-04T01:05:33;5.20;69.20
52036;DHT22;38046;49.448;32.074;2023-03-04T01:08:00;5.20;69.20
52036;DHT22;38046;49.448;32.074;2023-03-04T01:10:26;5.20;69.20
52036;DHT22;38046;49.448;32.074;2023-03-04T01:12:52;5.20;69.10
52036;DHT22;38046;49.448;32.074;2023-03-04T01:15:17;5.20;69.20
52036;DHT22;38046;49.448;32.074;2023-03-04T01:17:43;5.20;69.20
52036;DHT22;38046;49.448;32.074;2023-03-04T01:20:11;5.20;69.20
52036;DHT22;38046;49.448;32.074;2023-03-04T01:22:37;5.20;69.20
52036;DHT22;38046;49.448;32.074;2023-03-04T01:25:03;5.20;69.20
52036;DHT22;38046;49.448;32.074;2023-03-04T01:27:29;5.20;69.30
52036;DHT22;38046;49.448;32.074;2023-03-04T01:29:55;5.20;69.30
52036;DHT22;38046;49.448;32.074;2023-03-04T01:32:20;5.20;69.30
52036;DHT22;38046;49.448;32.074;2023-03-04T01:34:46;5.20;69.30
52036;DHT22;38046;49.448;32.074;2023-03-04T01:37:12;5.10;69.40
52036;DHT22;38046;49.448;32.074;2023-03-04T01:39:40;5.10;69.40
52036;DHT22;38046;49.448;32.074;2023-03-04T01:42:16;5.10;69.50
52036;DHT22;38046;49.448;32.074;2023-03-04T01:44:43;5.10;69.50
52036;DHT22;38046;49.448;32.074;2023-03-04T01:47:09;5.10;69.70
52036;DHT22;38046;49.448;32.074;2023-03-04T01:49:35;5.10;69.60
52036;DHT22;38046;49.448;32.074;2023-03-04T01:52:01;5.10;69.60
52036;DHT22;38046;49.448;32.074;2023-03-04T01:54:26;5.10;69.60
52036;DHT22;38046;49.448;32.074;2023-03-04T01:56:52;5.10;69.60
52036;DHT22;38046;49.448;32.074;2023-03-04T02:01:49;5.00;69.70
52036;DHT22;38046;49.448;32.074;2023-03-04T02:04:17;5.00;69.70
52036;DHT22;38046;49.448;32.074;2023-03-04T02:06:44;5.00;69.70
52036;DHT22;38046;49.448;32.074;2023-03-04T02:09:10;5.00;69.80
52036;DHT22;38046;49.448;32.074;2023-03-04T02:11:37;5.00;69.90
52036;DHT22;38046;49.448;32.074;2023-03-04T02:14:03;5.00;70.00
52036;DHT22;38046;49.448;32.074;2023-03-04T02:16:30;5.00;70.00
52036;DHT22;38046;49.448;32.074;2023-03-04T02:18:56;5.00;70.00
52036;DHT22;38046;49.448;32.074;2023-03-04T02:21:27;5.00;70.20
52036;DHT22;38046;49.448;32.074;2023-03-04T02:26:32;4.90;70.30
52036;DHT22;38046;49.448;32.074;2023-03-04T02:29:00;4.90;70.40
52036;DHT22;38046;49.448;32.074;2023-03-04T02:31:32;4.80;70.40
52036;DHT22;38046;49.448;32.074;2023-03-04T02:34:01;4.90;70.50
52036;DHT22;38046;49.448;32.074;2023-03-04T02:36:28;4.90;70.50
52036;DHT22;38046;49.448;32.074;2023-03-04T02:38:56;4.90;70.60
52036;DHT22;38046;49.448;32.074;2023-03-04T02:41:28;4.90;70.70
52036;DHT22;38046;49.448;32.074;2023-03-04T02:43:54;4.90;70.60
52036;DHT22;38046;49.448;32.074;2023-03-04T02:46:21;4.90;71.30
52036;DHT22;38046;49.448;32.074;2023-03-04T02:48:48;4.80;70.60
52036;DHT22;38046;49.448;32.074;2023-03-04T02:51:14;4.90;70.70
52036;DHT22;38046;49.448;32.074;2023-03-04T02:53:39;4.80;70.60
52036;DHT22;38046;49.448;32.074;2023-03-04T02:56:05;4.90;70.70
52036;DHT22;38046;49.448;32.074;2023-03-04T02:58:31;4.90;70.60
52036;DHT22;38046;49.448;32.074;2023-03-04T03:00:57;4.90;70.70
52036;DHT22;38046;49.448;32.074;2023-03-04T03:03:23;4.80;71.30
52036;DHT22;38046;49.448;32.074;2023-03-04T03:05:49;4.80;70.90
52036;DHT22;38046;49.448;32.074;2023-03-04T03:08:15;4.80;71.00
52036;DHT22;38046;49.448;32.074;2023-03-04T03:10:40;4.80;71.00
52036;DHT22;38046;49.448;32.074;2023-03-04T03:13:06;4.80;71.00
52036;DHT22;38046;49.448;32.074;2023-03-04T03:15:32;4.80;71.00
52036;DHT22;38046;49.448;32.074;2023-03-04T03:17:57;4.80;71.10
52036;DHT22;38046;49.448;32.074;2023-03-04T03:20:23;4.80;71.10
52036;DHT22;38046;49.448;32.074;2023-03-04T03:22:49;4.80;71.00
52036;DHT22;38046;49.448;32.074;2023-03-04T03:25:16;4.80;71.10
52036;DHT22;38046;49.448;32.074;2023-03-04T03:27:41;4.80;71.20
52036;DHT22;38046;49.448;32.074;2023-03-04T03:30:10;4.80;71.20
52036;DHT22;38046;49.448;32.074;2023-03-04T03:32:36;4.80;71.20
52036;DHT22;38046;49.448;32.074;2023-03-04T03:35:02;4.80;71.20
52036;DHT22;38046;49.448;32.074;2023-03-04T03:37:28;4.80;71.30
52036;DHT22;38046;49.448;32.074;2023-03-04T03:39:54;4.80;71.20
52036;DHT22;38046;49.448;32.074;2023-03-04T03:42:19;4.70;71.20
52036;DHT22;38046;49.448;32.074;2023-03-04T03:44:45;4.80;71.40
52036;DHT22;38046;49.448;32.074;2023-03-04T03:47:11;4.80;71.40
52036;DHT22;38046;49.448;32.074;2023-03-04T03:49:36;4.70;71.50
52036;DHT22;38046;49.448;32.074;2023-03-04T03:52:02;4.70;71.20
52036;DHT22;38046;49.448;32.074;2023-03-04T03:54:28;4.70;71.40
52036;DHT22;38046;49.448;32.074;2023-03-04T03:56:53;4.60;71.50
52036;DHT22;38046;49.448;32.074;2023-03-04T03:59:19;4.50;71.70
52036;DHT22;38046;49.448;32.074;2023-03-04T04:01:45;4.50;71.90
52036;DHT22;38046;49.448;32.074;2023-03-04T04:04:10;4.40;72.20
52036;DHT22;38046;49.448;32.074;2023-03-04T04:06:36;4.40;72.40
52036;DHT22;38046;49.448;32.074;2023-03-04T04:09:02;4.30;72.70
52036;DHT22;38046;49.448;32.074;2023-03-04T04:11:27;4.20;72.60
52036;DHT22;38046;49.448;32.074;2023-03-04T04:13:53;4.20;72.80
52036;DHT22;38046;49.448;32.074;2023-03-04T04:16:19;4.10;73.00
52036;DHT22;38046;49.448;32.074;2023-03-04T04:18:44;4.10;73.10
52036;DHT22;38046;49.448;32.074;2023-03-04T04:21:10;4.00;73.40
52036;DHT22;38046;49.448;32.074;2023-03-04T04:23:36;4.00;73.50
52036;DHT22;38046;49.448;32.074;2023-03-04T04:26:01;3.90;73.60
52036;DHT22;38046;49.448;32.074;2023-03-04T04:28:27;3.90;73.70
52036;DHT22;38046;49.448;32.074;2023-03-04T04:30:52;3.90;74.20
52036;DHT22;38046;49.448;32.074;2023-03-04T04:33:18;3.80;74.20
52036;DHT22;38046;49.448;32.074;2023-03-04T04:35:44;3.80;74.50
52036;DHT22;38046;49.448;32.074;2023-03-04T04:38:09;3.80;74.50
52036;DHT22;38046;49.448;32.074;2023-03-04T04:40:36;3.80;74.50
52036;DHT22;38046;49.448;32.074;2023-03-04T04:43:02;3.70;74.70
52036;DHT22;38046;49.448;32.074;2023-03-04T04:45:27;3.70;74.80
52036;DHT22;38046;49.448;32.074;2023-03-04T04:47:54;3.70;74.80
52036;DHT22;38046;49.448;32.074;2023-03-04T04:50:25;3.80;75.00
52036;DHT22;38046;49.448;32.074;2023-03-04T04:52:51;3.80;74.90
52036;DHT22;38046;49.448;32.074;2023-03-04T04:55:17;3.80;74.90
52036;DHT22;38046;49.448;32.074;2023-03-04T04:57:42;3.80;75.10
52036;DHT22;38046;49.448;32.074;2023-03-04T05:00:08;3.90;75.20
52036;DHT22;38046;49.448;32.074;2023-03-04T05:02:35;3.90;75.20
52036;DHT22;38046;49.448;32.074;2023-03-04T05:05:05;4.00;75.10
52036;DHT22;38046;49.448;32.074;2023-03-04T05:07:32;4.20;75.00
52036;DHT22;38046;49.448;32.074;2023-03-04T05:09:58;4.20;74.90
52036;DHT22;38046;49.448;32.074;2023-03-04T05:12:23;4.40;75.10
52036;DHT22;38046;49.448;32.074;2023-03-04T05:14:49;4.50;75.10
52036;DHT22;38046;49.448;32.074;2023-03-04T05:17:15;4.70;74.90
52036;DHT22;38046;49.448;32.074;2023-03-04T05:19:40;4.90;74.70
52036;DHT22;38046;49.448;32.074;2023-03-04T05:22:06;5.00;74.40
52036;DHT22;38046;49.448;32.074;2023-03-04T05:24:32;5.20;74.20
52036;DHT22;38046;49.448;32.074;2023-03-04T05:26:59;5.30;74.00
52036;DHT22;38046;49.448;32.074;2023-03-04T05:29:25;5.50;73.80
52036;DHT22;38046;49.448;32.074;2023-03-04T05:31:51;5.70;73.30
52036;DHT22;38046;49.448;32.074;2023-03-04T05:34:17;5.70;72.70
52036;DHT22;38046;49.448;32.074;2023-03-04T05:36:42;5.80;72.60
52036;DHT22;38046;49.448;32.074;2023-03-04T05:39:08;5.80;73.10
52036;DHT22;38046;49.448;32.074;2023-03-04T05:41:33;5.80;72.20
52036;DHT22;38046;49.448;32.074;2023-03-04T05:43:59;5.80;72.30
52036;DHT22;38046;49.448;32.074;2023-03-04T05:46:25;5.80;72.50
52036;DHT22;38046;49.448;32.074;2023-03-04T05:48:51;5.70;72.70
52036;DHT22;38046;49.448;32.074;2023-03-04T05:51:18;5.80;72.80
52036;DHT22;38046;49.448;32.074;2023-03-04T05:53:44;5.80;72.90
52036;DHT22;38046;49.448;32.074;2023-03-04T05:56:11;5.80;73.20
52036;DHT22;38046;49.448;32.074;2023-03-04T05:58:37;5.90;73.60
52036;DHT22;38046;49.448;32.074;2023-03-04T06:01:04;6.00;74.00
52036;DHT22;38046;49.448;32.074;2023-03-04T06:03:30;6.10;74.00
52036;DHT22;38046;49.448;32.074;2023-03-04T06:05:56;6.30;73.70
52036;DHT22;38046;49.448;32.074;2023-03-04T06:08:22;6.50;73.20
52036;DHT22;38046;49.448;32.074;2023-03-04T06:10:52;6.60;73.10
52036;DHT22;38046;49.448;32.074;2023-03-04T06:13:18;6.80;72.50
52036;DHT22;38046;49.448;32.074;2023-03-04T06:15:44;6.90;72.10
52036;DHT22;38046;49.448;32.074;2023-03-04T06:18:09;7.00;71.60
52036;DHT22;38046;49.448;32.074;2023-03-04T06:20:35;7.10;71.60
52036;DHT22;38046;49.448;32.074;2023-03-04T06:23:01;7.30;71.60
52036;DHT22;38046;49.448;32.074;2023-03-04T06:25:28;7.40;71.30
52036;DHT22;38046;49.448;32.074;2023-03-04T06:27:53;7.60;70.90
52036;DHT22;38046;49.448;32.074;2023-03-04T06:30:19;7.80;70.20
52036;DHT22;38046;49.448;32.074;2023-03-04T06:32:45;7.90;69.70
52036;DHT22;38046;49.448;32.074;2023-03-04T06:35:14;8.00;69.20
52036;DHT22;38046;49.448;32.074;2023-03-04T06:37:41;8.00;68.90
52036;DHT22;38046;49.448;32.074;2023-03-04T06:40:07;8.00;68.80
52036;DHT22;38046;49.448;32.074;2023-03-04T06:42:34;7.90;68.70
52036;DHT22;38046;49.448;32.074;2023-03-04T06:45:00;7.90;68.80
52036;DHT22;38046;49.448;32.074;2023-03-04T06:47:26;7.80;68.20
52036;DHT22;38046;49.448;32.074;2023-03-04T06:49:52;7.80;68.10
52036;DHT22;38046;49.448;32.074;2023-03-04T06:52:18;7.70;68.10
52036;DHT22;38046;49.448;32.074;2023-03-04T06:54:43;7.60;68.00
52036;DHT22;38046;49.448;32.074;2023-03-04T06:57:09;7.50;67.80
52036;DHT22;38046;49.448;32.074;2023-03-04T06:59:35;7.50;68.20
52036;DHT22;38046;49.448;32.074;2023-03-04T07:02:00;7.40;68.20
52036;DHT22;38046;49.448;32.074;2023-03-04T07:04:26;7.50;68.30
52036;DHT22;38046;49.448;32.074;2023-03-04T07:06:52;7.50;68.20
52036;DHT22;38046;49.448;32.074;2023-03-04T07:09:18;7.60;68.00
52036;DHT22;38046;49.448;32.074;2023-03-04T07:11:44;7.60;67.70
52036;DHT22;38046;49.448;32.074;2023-03-04T07:14:10;7.70;67.50
52036;DHT22;38046;49.448;32.074;2023-03-04T07:16:35;7.70;67.40
52036;DHT22;38046;49.448;32.074;2023-03-04T07:19:02;7.80;67.10
52036;DHT22;38046;49.448;32.074;2023-03-04T07:21:28;7.80;66.90
52036;DHT22;38046;49.448;32.074;2023-03-04T07:23:54;7.90;66.90
52036;DHT22;38046;49.448;32.074;2023-03-04T07:26:20;7.90;67.00
52036;DHT22;38046;49.448;32.074;2023-03-04T07:28:45;8.10;67.00
52036;DHT22;38046;49.448;32.074;2023-03-04T07:33:44;8.20;66.00
52036;DHT22;38046;49.448;32.074;2023-03-04T07:36:10;8.30;65.90
52036;DHT22;38046;49.448;32.074;2023-03-04T07:38:36;8.50;65.40
52036;DHT22;38046;49.448;32.074;2023-03-04T07:41:02;8.50;64.70
52036;DHT22;38046;49.448;32.074;2023-03-04T07:43:27;8.50;64.40
52036;DHT22;38046;49.448;32.074;2023-03-04T07:45:58;8.50;64.70
52036;DHT22;38046;49.448;32.074;2023-03-04T07:48:25;8.50;64.60
52036;DHT22;38046;49.448;32.074;2023-03-04T07:51:01;8.40;64.70
52036;DHT22;38046;49.448;32.074;2023-03-04T07:53:27;8.50;64.50
52036;DHT22;38046;49.448;32.074;2023-03-04T07:55:53;8.50;64.20
52036;DHT22;38046;49.448;32.074;2023-03-04T07:58:18;8.50;64.30
52036;DHT22;38046;49.448;32.074;2023-03-04T08:00:44;8.50;64.80
52036;DHT22;38046;49.448;32.074;2023-03-04T08:03:09;8.40;64.00
52036;DHT22;38046;49.448;32.074;2023-03-04T08:05:38;8.50;64.20
52036;DHT22;38046;49.448;32.074;2023-03-04T08:08:04;8.40;64.10
52036;DHT22;38046;49.448;32.074;2023-03-04T08:10:29;8.30;63.70
52036;DHT22;38046;49.448;32.074;2023-03-04T08:12:55;8.20;64.00
52036;DHT22;38046;49.448;32.074;2023-03-04T08:15:20;8.20;64.10
52036;DHT22;38046;49.448;32.074;2023-03-04T08:17:46;8.20;64.30
52036;DHT22;38046;49.448;32.074;2023-03-04T08:20:12;8.30;64.10
52036;DHT22;38046;49.448;32.074;2023-03-04T08:22:38;8.30;64.00
52036;DHT22;38046;49.448;32.074;2023-03-04T08:25:04;8.40;64.00
52036;DHT22;38046;49.448;32.074;2023-03-04T08:27:30;8.50;64.00
52036;DHT22;38046;49.448;32.074;2023-03-04T08:29:55;8.60;64.70
52036;DHT22;38046;49.448;32.074;2023-03-04T08:32:21;8.60;63.40
52036;DHT22;38046;49.448;32.074;2023-03-04T08:34:46;8.60;63.50
52036;DHT22;38046;49.448;32.074;2023-03-04T08:37:12;8.60;63.10
52036;DHT22;38046;49.448;32.074;2023-03-04T08:39:38;8.60;63.10
52036;DHT22;38046;49.448;32.074;2023-03-04T08:42:03;8.60;63.00
52036;DHT22;38046;49.448;32.074;2023-03-04T08:44:29;8.60;63.00
52036;DHT22;38046;49.448;32.074;2023-03-04T08:46:55;8.60;62.50
52036;DHT22;38046;49.448;32.074;2023-03-04T08:49:21;8.60;62.50
52036;DHT22;38046;49.448;32.074;2023-03-04T08:51:46;8.60;62.60
52036;DHT22;38046;49.448;32.074;2023-03-04T08:54:12;8.60;62.60
52036;DHT22;38046;49.448;32.074;2023-03-04T08:56:39;8.60;62.60
52036;DHT22;38046;49.448;32.074;2023-03-04T08:59:05;8.60;62.30
52036;DHT22;38046;49.448;32.074;2023-03-04T09:01:30;8.60;62.30
52036;DHT22;38046;49.448;32.074;2023-03-04T09:03:56;8.60;62.40
52036;DHT22;38046;49.448;32.074;2023-03-04T09:06:22;8.60;62.30
52036;DHT22;38046;49.448;32.074;2023-03-04T09:08:47;8.60;62.80
52036;DHT22;38046;49.448;32.074;2023-03-04T09:11:14;8.60;62.50
52036;DHT22;38046;49.448;32.074;2023-03-04T09:13:40;8.60;62.30
52036;DHT22;38046;49.448;32.074;2023-03-04T09:16:10;8.70;62.30
52036;DHT22;38046;49.448;32.074;2023-03-04T09:18:37;8.70;61.90
52036;DHT22;38046;49.448;32.074;2023-03-04T09:21:04;8.60;61.70
52036;DHT22;38046;49.448;32.074;2023-03-04T09:23:30;8.50;61.80
52036;DHT22;38046;49.448;32.074;2023-03-04T09:25:56;8.50;61.80
52036;DHT22;38046;49.448;32.074;2023-03-04T09:28:21;8.40;61.80
52036;DHT22;38046;49.448;32.074;2023-03-04T09:30:47;8.40;62.00
52036;DHT22;38046;49.448;32.074;2023-03-04T09:33:13;8.30;62.10
52036;DHT22;38046;49.448;32.074;2023-03-04T09:35:39;8.30;62.20
52036;DHT22;38046;49.448;32.074;2023-03-04T09:38:05;8.20;62.30
52036;DHT22;38046;49.448;32.074;2023-03-04T09:40:47;8.30;62.50
52036;DHT22;38046;49.448;32.074;2023-03-04T09:43:21;8.30;62.20
52036;DHT22;38046;49.448;32.074;2023-03-04T09:45:53;8.40;61.90
52036;DHT22;38046;49.448;32.074;2023-03-04T09:48:22;8.40;62.00
52036;DHT22;38046;49.448;32.074;2023-03-04T09:54:05;8.40;62.20
52036;DHT22;38046;49.448;32.074;2023-03-04T09:56:37;8.50;62.30
52036;DHT22;38046;49.448;32.074;2023-03-04T09:59:46;8.70;62.00
52036;DHT22;38046;49.448;32.074;2023-03-04T10:02:28;8.70;61.70
52036;DHT22;38046;49.448;32.074;2023-03-04T10:04:59;8.80;61.70
52036;DHT22;38046;49.448;32.074;2023-03-04T10:07:34;8.90;61.50
52036;DHT22;38046;49.448;32.074;2023-03-04T10:10:09;8.90;61.60
52036;DHT22;38046;49.448;32.074;2023-03-04T10:12:42;9.00;61.20
52036;DHT22;38046;49.448;32.074;2023-03-04T10:15:25;9.10;61.10
52036;DHT22;38046;49.448;32.074;2023-03-04T10:18:02;9.10;60.90
52036;DHT22;38046;49.448;32.074;2023-03-04T10:23:13;9.30;60.80
52036;DHT22;38046;49.448;32.074;2023-03-04T10:25:44;9.40;60.00
52036;DHT22;38046;49.448;32.074;2023-03-04T10:28:19;9.40;59.60
52036;DHT22;38046;49.448;32.074;2023-03-04T10:31:26;9.40;59.60
52036;DHT22;38046;49.448;32.074;2023-03-04T10:33:54;9.50;59.70
52036;DHT22;38046;49.448;32.074;2023-03-04T10:41:29;9.70;59.80
52036;DHT22;38046;49.448;32.074;2023-03-04T10:44:17;9.80;59.40
52036;DHT22;38046;49.448;32.074;2023-03-04T10:46:47;9.90;59.10
52036;DHT22;38046;49.448;32.074;2023-03-04T10:49:16;9.90;59.50
52036;DHT22;38046;49.448;32.074;2023-03-04T10:51:50;9.90;58.90
52036;DHT22;38046;49.448;32.074;2023-03-04T11:00:37;10.10;58.00
52036;DHT22;38046;49.448;32.074;2023-03-04T11:03:28;10.10;57.80
52036;DHT22;38046;49.448;32.074;2023-03-04T11:06:30;10.10;58.10
52036;DHT22;38046;49.448;32.074;2023-03-04T11:08:58;10.10;57.70
52036;DHT22;38046;49.448;32.074;2023-03-04T11:11:29;10.10;58.10
52036;DHT22;38046;49.448;32.074;2023-03-04T11:14:01;10.10;58.20
52036;DHT22;38046;49.448;32.074;2023-03-04T11:16:30;10.10;58.10
52036;DHT22;38046;49.448;32.074;2023-03-04T11:19:20;10.10;57.90
52036;DHT22;38046;49.448;32.074;2023-03-04T11:21:45;10.00;57.70
52036;DHT22;38046;49.448;32.074;2023-03-04T11:24:20;10.00;58.00
52036;DHT22;38046;49.448;32.074;2023-03-04T11:27:05;10.00;58.10
52036;DHT22;38046;49.448;32.074;2023-03-04T11:29:56;9.90;57.80
52036;DHT22;38046;49.448;32.074;2023-03-04T11:32:36;10.00;58.20
52036;DHT22;38046;49.448;32.074;2023-03-04T11:37:51;10.00;58.30
52036;DHT22;38046;49.448;32.074;2023-03-04T11:40:37;10.10;57.90
52036;DHT22;38046;49.448;32.074;2023-03-04T11:46:24;10.20;57.40
52036;DHT22;38046;49.448;32.074;2023-03-04T11:49:06;10.20;57.40
52036;DHT22;38046;49.448;32.074;2023-03-04T12:05:30;10.30;56.60
52036;DHT22;38046;49.448;32.074;2023-03-04T12:10:40;10.30;56.40
52036;DHT22;38046;49.448;32.074;2023-03-04T12:46:18;10.60;55.90
52036;DHT22;38046;49.448;32.074;2023-03-04T12:48:51;10.60;55.50
52036;DHT22;38046;49.448;32.074;2023-03-04T12:52:15;10.60;55.10
52036;DHT22;38046;49.448;32.074;2023-03-04T12:54:39;10.50;55.00
52036;DHT22;38046;49.448;32.074;2023-03-04T12:57:18;10.40;54.50
52036;DHT22;38046;49.448;32.074;2023-03-04T13:02:28;10.10;54.50
52036;DHT22;38046;49.448;32.074;2023-03-04T13:05:18;10.10;54.70
52036;DHT22;38046;49.448;32.074;2023-03-04T13:08:30;10.10;55.00
52036;DHT22;38046;49.448;32.074;2023-03-04T13:16:52;10.10;55.00
52036;DHT22;38046;49.448;32.074;2023-03-04T13:19:40;10.00;54.80
52036;DHT22;38046;49.448;32.074;2023-03-04T13:24:50;9.90;54.50
52036;DHT22;38046;49.448;32.074;2023-03-04T13:38:25;9.80;55.00
52036;DHT22;38046;49.448;32.074;2023-03-04T13:51:38;9.50;54.50
52036;DHT22;38046;49.448;32.074;2023-03-04T13:56:46;9.40;54.80
52036;DHT22;38046;49.448;32.074;2023-03-04T14:00:00;9.50;55.10
52036;DHT22;38046;49.448;32.074;2023-03-04T14:02:14;9.40;54.80
52036;DHT22;38046;49.448;32.074;2023-03-04T14:05:01;9.40;55.00
52036;DHT22;38046;49.448;32.074;2023-03-04T14:07:35;9.40;54.90
52036;DHT22;38046;49.448;32.074;2023-03-04T14:12:39;9.30;55.00
52036;DHT22;38046;49.448;32.074;2023-03-04T14:15:27;9.30;55.00
52036;DHT22;38046;49.448;32.074;2023-03-04T14:17:55;9.30;55.10
52036;DHT22;38046;49.448;32.074;2023-03-04T14:20:28;9.30;55.30
52036;DHT22;38046;49.448;32.074;2023-03-04T14:22:55;9.30;55.20
52036;DHT22;38046;49.448;32.074;2023-03-04T14:25:28;9.40;55.40
52036;DHT22;38046;49.448;32.074;2023-03-04T14:28:04;9.40;55.30
52036;DHT22;38046;49.448;32.074;2023-03-04T14:30:34;9.40;55.30
52036;DHT22;38046;49.448;32.074;2023-03-04T14:33:00;9.30;55.30
52036;DHT22;38046;49.448;32.074;2023-03-04T14:35:28;9.30;55.40
52036;DHT22;38046;49.448;32.074;2023-03-04T14:40:50;9.30;55.70
52036;DHT22;38046;49.448;32.074;2023-03-04T14:43:19;9.30;55.80
52036;DHT22;38046;49.448;32.074;2023-03-04T14:45:49;9.30;55.70
52036;DHT22;38046;49.448;32.074;2023-03-04T14:48:24;9.30;55.90
52036;DHT22;38046;49.448;32.074;2023-03-04T14:50:51;9.20;56.00
52036;DHT22;38046;49.448;32.074;2023-03-04T14:53:20;9.10;55.80
52036;DHT22;38046;49.448;32.074;2023-03-04T14:56:06;9.10;56.10
52036;DHT22;38046;49.448;32.074;2023-03-04T14:58:33;9.10;56.20
52036;DHT22;38046;49.448;32.074;2023-03-04T15:01:34;9.00;56.30
52036;DHT22;38046;49.448;32.074;2023-03-04T15:04:08;8.90;56.30
52036;DHT22;38046;49.448;32.074;2023-03-04T15:06:46;8.90;56.70
52036;DHT22;38046;49.448;32.074;2023-03-04T15:09:22;8.80;56.70
52036;DHT22;38046;49.448;32.074;2023-03-04T15:12:02;8.80;56.80
52036;DHT22;38046;49.448;32.074;2023-03-04T15:14:58;8.70;56.90
52036;DHT22;38046;49.448;32.074;2023-03-04T15:17:43;8.70;57.10
52036;DHT22;38046;49.448;32.074;2023-03-04T15:25:02;8.60;57.50
52036;DHT22;38046;49.448;32.074;2023-03-04T15:27:29;8.50;57.60
52036;DHT22;38046;49.448;32.074;2023-03-04T15:29:58;8.50;57.70
52036;DHT22;38046;49.448;32.074;2023-03-04T15:32:25;8.50;57.90
52036;DHT22;38046;49.448;32.074;2023-03-04T15:34:51;8.50;58.00
52036;DHT22;38046;49.448;32.074;2023-03-04T15:37:25;8.40;58.10
52036;DHT22;38046;49.448;32.074;2023-03-04T15:39:52;8.40;58.10
52036;DHT22;38046;49.448;32.074;2023-03-04T15:42:19;8.40;58.40
52036;DHT22;38046;49.448;32.074;2023-03-04T15:44:45;8.30;58.50
52036;DHT22;38046;49.448;32.074;2023-03-04T15:47:11;8.20;58.50
52036;DHT22;38046;49.448;32.074;2023-03-04T15:49:43;8.10;58.50
52036;DHT22;38046;49.448;32.074;2023-03-04T15:52:20;8.00;58.50
52036;DHT22;38046;49.448;32.074;2023-03-04T15:54:47;7.80;58.30
52036;DHT22;38046;49.448;32.074;2023-03-04T15:57:20;7.70;58.40
52036;DHT22;38046;49.448;32.074;2023-03-04T15:59:46;7.60;58.60
52036;DHT22;38046;49.448;32.074;2023-03-04T16:02:23;7.50;59.30
52036;DHT22;38046;49.448;32.074;2023-03-04T16:04:51;7.50;58.90
52036;DHT22;38046;49.448;32.074;2023-03-04T16:07:18;7.40;58.90
52036;DHT22;38046;49.448;32.074;2023-03-04T16:09:45;7.40;58.70
52036;DHT22;38046;49.448;32.074;2023-03-04T16:12:11;7.40;58.60
52036;DHT22;38046;49.448;32.074;2023-03-04T16:14:38;7.30;58.50
52036;DHT22;38046;49.448;32.074;2023-03-04T16:17:03;7.30;58.60
52036;DHT22;38046;49.448;32.074;2023-03-04T16:19:29;7.30;58.60
52036;DHT22;38046;49.448;32.074;2023-03-04T16:21:55;7.20;58.60
52036;DHT22;38046;49.448;32.074;2023-03-04T16:24:21;7.20;58.70
52036;DHT22;38046;49.448;32.074;2023-03-04T16:26:47;7.10;58.70
52036;DHT22;38046;49.448;32.074;2023-03-04T16:29:14;7.00;58.70
52036;DHT22;38046;49.448;32.074;2023-03-04T16:31:40;7.00;58.90
52036;DHT22;38046;49.448;32.074;2023-03-04T16:34:06;6.90;58.90
52036;DHT22;38046;49.448;32.074;2023-03-04T16:36:31;6.80;58.90
52036;DHT22;38046;49.448;32.074;2023-03-04T16:39:03;6.70;58.60
52036;DHT22;38046;49.448;32.074;2023-03-04T16:41:30;6.60;58.50
52036;DHT22;38046;49.448;32.074;2023-03-04T16:43:59;6.40;58.40
52036;DHT22;38046;49.448;32.074;2023-03-04T16:46:25;6.30;58.60
52036;DHT22;38046;49.448;32.074;2023-03-04T16:48:50;6.30;58.60
52036;DHT22;38046;49.448;32.074;2023-03-04T16:51:18;6.10;58.40
52036;DHT22;38046;49.448;32.074;2023-03-04T16:53:52;6.00;58.40
52036;DHT22;38046;49.448;32.074;2023-03-04T16:56:19;6.00;58.60
52036;DHT22;38046;49.448;32.074;2023-03-04T16:58:45;5.90;58.70
52036;DHT22;38046;49.448;32.074;2023-03-04T17:01:30;5.90;58.90
52036;DHT22;38046;49.448;32.074;2023-03-04T17:03:56;5.80;58.90
52036;DHT22;38046;49.448;32.074;2023-03-04T17:06:22;5.80;59.10
52036;DHT22;38046;49.448;32.074;2023-03-04T17:08:48;5.70;59.20
52036;DHT22;38046;49.448;32.074;2023-03-04T17:11:17;5.60;59.40
52036;DHT22;38046;49.448;32.074;2023-03-04T17:13:43;5.60;60.00
52036;DHT22;38046;49.448;32.074;2023-03-04T17:16:10;5.50;59.60
52036;DHT22;38046;49.448;32.074;2023-03-04T17:18:36;5.50;59.70
52036;DHT22;38046;49.448;32.074;2023-03-04T17:21:09;5.50;59.70
52036;DHT22;38046;49.448;32.074;2023-03-04T17:23:36;5.50;59.80
52036;DHT22;38046;49.448;32.074;2023-03-04T17:26:02;5.40;59.90
52036;DHT22;38046;49.448;32.074;2023-03-04T17:28:28;5.40;60.10
52036;DHT22;38046;49.448;32.074;2023-03-04T17:30:54;5.30;60.10
52036;DHT22;38046;49.448;32.074;2023-03-04T17:33:20;5.30;60.30
52036;DHT22;38046;49.448;32.074;2023-03-04T17:35:45;5.20;60.50
52036;DHT22;38046;49.448;32.074;2023-03-04T17:38:12;5.20;60.70
52036;DHT22;38046;49.448;32.074;2023-03-04T17:40:39;5.10;60.80
52036;DHT22;38046;49.448;32.074;2023-03-04T17:43:04;5.10;60.90
52036;DHT22;38046;49.448;32.074;2023-03-04T17:45:37;5.00;61.10
52036;DHT22;38046;49.448;32.074;2023-03-04T17:48:03;5.00;61.30